sensor_id;sensor_type;location;lat;lon;timestamp;temperature;humidity
17495;DHT22;8864;51.970;4.614;2024-03-08T06:10:11;16.30;73.80
17495;DHT22;8864;51.970;4.614;2024-03-08T06:12:40;16.20;73.60
17495;DHT22;8864;51.970;4.614;2024-03-08T06:15:08;16.20;73.40
17495;DHT22;8864;51.970;4.614;2024-03-08T06:17:35;16.20;73.40
17495;DHT22;8864;51.970;4.614;2024-03-08T06:20:05;16.20;73.60
17495;DHT22;8864;51.970;4.614;2024-03-08T06:22:44;16.20;73.70
17495;DHT22;8864;51.970;4.614;2024-03-08T06:25:14;16.30;73.60
17495;DHT22;8864;51.970;4.614;2024-03-08T06:27:41;16.30;73.60
17495;DHT22;8864;51.970;4.614;2024-03-08T06:30:10;16.30;73.40
17495;DHT22;8864;51.970;4.614;2024-03-08T06:32:37;16.20;73.10
17495;DHT22;8864;51.970;4.614;2024-03-08T06:35:06;16.20;73.10
17495;DHT22;8864;51.970;4.614;2024-03-08T06:37:33;16.20;73.00
17495;DHT22;8864;51.970;4.614;2024-03-08T06:40:01;16.20;72.90
17495;DHT22;8864;51.970;4.614;2024-03-08T06:42:30;16.20;73.60
17495;DHT22;8864;51.970;4.614;2024-03-08T06:44:59;16.20;72.70
17495;DHT22;8864;51.970;4.614;2024-03-08T06:47:30;16.20;72.50
17495;DHT22;8864;51.970;4.614;2024-03-08T06:49:57;16.20;72.40
17495;DHT22;8864;51.970;4.614;2024-03-08T06:52:24;16.20;72.30
17495;DHT22;8864;51.970;4.614;2024-03-08T06:54:51;16.20;72.30
17495;DHT22;8864;51.970;4.614;2024-03-08T06:57:18;16.20;72.30
17495;DHT22;8864;51.970;4.614;2024-03-08T06:59:48;16.20;72.30
17495;DHT22;8864;51.970;4.614;2024-03-08T07:02:17;16.20;72.20
17495;DHT22;8864;51.970;4.614;2024-03-08T07:04:45;16.20;72.20
17495;DHT22;8864;51.970;4.614;2024-03-08T07:07:11;16.20;72.20
17495;DHT22;8864;51.970;4.614;2024-03-08T07:09:38;16.20;73.00
17495;DHT22;8864;51.970;4.614;2024-03-08T07:12:08;16.30;72.20
17495;DHT22;8864;51.970;4.614;2024-03-08T07:14:37;16.20;72.10
17495;DHT22;8864;51.970;4.614;2024-03-08T07:17:07;16.30;72.10
17495;DHT22;8864;51.970;4.614;2024-03-08T07:19:35;16.20;72.00
17495;DHT22;8864;51.970;4.614;2024-03-08T07:22:03;16.20;72.00
17495;DHT22;8864;51.970;4.614;2024-03-08T07:24:34;16.30;72.30
17495;DHT22;8864;51.970;4.614;2024-03-08T07:27:16;16.30;72.80
17495;DHT22;8864;51.970;4.614;2024-03-08T07:29:44;16.30;72.80
17495;DHT22;8864;51.970;4.614;2024-03-08T07:32:12;16.30;72.90
17495;DHT22;8864;51.970;4.614;2024-03-08T07:34:47;16.30;73.10
17495;DHT22;8864;51.970;4.614;2024-03-08T07:37:16;16.30;73.20
17495;DHT22;8864;51.970;4.614;2024-03-08T07:39:44;16.40;73.40
17495;DHT22;8864;51.970;4.614;2024-03-08T07:42:11;16.40;73.50
17495;DHT22;8864;51.970;4.614;2024-03-08T07:44:39;16.40;73.90
17495;DHT22;8864;51.970;4.614;2024-03-08T07:47:06;16.40;73.90
17495;DHT22;8864;51.970;4.614;2024-03-08T07:49:36;16.40;74.30
17495;DHT22;8864;51.970;4.614;2024-03-08T07:52:04;16.40;74.30
17495;DHT22;8864;51.970;4.614;2024-03-08T07:54:33;16.40;74.20
17495;DHT22;8864;51.970;4.614;2024-03-08T07:57:00;16.40;74.20
17495;DHT22;8864;51.970;4.614;2024-03-08T07:59:28;16.40;74.20
17495;DHT22;8864;51.970;4.614;2024-03-08T08:01:56;16.40;74.20
17495;DHT22;8864;51.970;4.614;2024-03-08T08:04:23;16.40;74.20
17495;DHT22;8864;51.970;4.614;2024-03-08T08:06:51;16.40;74.00
17495;DHT22;8864;51.970;4.614;2024-03-08T08:09:20;16.40;74.20
17495;DHT22;8864;51.970;4.614;2024-03-08T08:11:54;16.40;74.20
17495;DHT22;8864;51.970;4.614;2024-03-08T08:14:21;16.40;74.00
17495;DHT22;8864;51.970;4.614;2024-03-08T08:16:48;16.40;74.00
17495;DHT22;8864;51.970;4.614;2024-03-08T08:19:18;16.40;74.00
17495;DHT22;8864;51.970;4.614;2024-03-08T08:21:45;16.40;74.00
17495;DHT22;8864;51.970;4.614;2024-03-08T08:24:14;16.50;74.00
17495;DHT22;8864;51.970;4.614;2024-03-08T08:26:41;16.50;74.00
17495;DHT22;8864;51.970;4.614;2024-03-08T08:29:10;16.50;74.00
17495;DHT22;8864;51.970;4.614;2024-03-08T08:31:37;16.50;74.10
17495;DHT22;8864;51.970;4.614;2024-03-08T08:34:04;16.50;74.20
17495;DHT22;8864;51.970;4.614;2024-03-08T08:36:32;16.50;74.50
17495;DHT22;8864;51.970;4.614;2024-03-08T08:38:59;16.50;74.80
17495;DHT22;8864;51.970;4.614;2024-03-08T08:41:30;16.50;74.80
17495;DHT22;8864;51.970;4.614;2024-03-08T08:43:57;16.50;74.60
17495;DHT22;8864;51.970;4.614;2024-03-08T08:46:24;16.50;74.60
17495;DHT22;8864;51.970;4.614;2024-03-08T08:48:51;16.50;74.50
17495;DHT22;8864;51.970;4.614;2024-03-08T08:51:18;16.50;74.50
17495;DHT22;8864;51.970;4.614;2024-03-08T08:53:46;16.50;74.50
17495;DHT22;8864;51.970;4.614;2024-03-08T08:56:13;16.50;74.80
17495;DHT22;8864;51.970;4.614;2024-03-08T08:58:42;16.50;74.60
17495;DHT22;8864;51.970;4.614;2024-03-08T09:01:10;16.50;74.60
17495;DHT22;8864;51.970;4.614;2024-03-08T09:03:37;16.50;74.50
17495;DHT22;8864;51.970;4.614;2024-03-08T09:06:06;16.50;74.60
17495;DHT22;8864;51.970;4.614;2024-03-08T09:08:35;16.50;74.60
17495;DHT22;8864;51.970;4.614;2024-03-08T09:11:02;16.50;75.30
17495;DHT22;8864;51.970;4.614;2024-03-08T09:13:29;16.50;75.30
17495;DHT22;8864;51.970;4.614;2024-03-08T09:15:58;16.50;75.30
17495;DHT22;8864;51.970;4.614;2024-03-08T09:18:25;16.50;75.00
17495;DHT22;8864;51.970;4.614;2024-03-08T09:20:52;16.50;74.80
17495;DHT22;8864;51.970;4.614;2024-03-08T09:23:20;16.50;74.50
17495;DHT22;8864;51.970;4.614;2024-03-08T09:25:47;16.50;74.30
17495;DHT22;8864;51.970;4.614;2024-03-08T09:28:14;16.50;74.20
17495;DHT22;8864;51.970;4.614;2024-03-08T09:30:41;16.50;74.00
17495;DHT22;8864;51.970;4.614;2024-03-08T09:33:10;16.50;73.90
17495;DHT22;8864;51.970;4.614;2024-03-08T09:35:37;16.50;74.00
17495;DHT22;8864;51.970;4.614;2024-03-08T09:38:04;16.50;74.00
17495;DHT22;8864;51.970;4.614;2024-03-08T09:40:31;16.50;74.20
17495;DHT22;8864;51.970;4.614;2024-03-08T09:42:58;16.50;75.70
17495;DHT22;8864;51.970;4.614;2024-03-08T09:45:26;16.60;75.50
17495;DHT22;8864;51.970;4.614;2024-03-08T09:47:55;16.60;75.10
17495;DHT22;8864;51.970;4.614;2024-03-08T09:50:24;16.60;74.80
17495;DHT22;8864;51.970;4.614;2024-03-08T09:52:53;16.50;74.50
17495;DHT22;8864;51.970;4.614;2024-03-08T09:55:22;16.50;74.30
17495;DHT22;8864;51.970;4.614;2024-03-08T09:57:51;16.60;75.10
17495;DHT22;8864;51.970;4.614;2024-03-08T10:00:36;16.60;74.30
17495;DHT22;8864;51.970;4.614;2024-03-08T10:03:03;16.60;74.30
17495;DHT22;8864;51.970;4.614;2024-03-08T10:05:32;16.50;74.30
17495;DHT22;8864;51.970;4.614;2024-03-08T10:08:00;16.60;74.30
17495;DHT22;8864;51.970;4.614;2024-03-08T10:10:27;16.60;74.30
17495;DHT22;8864;51.970;4.614;2024-03-08T10:12:55;16.60;74.20
17495;DHT22;8864;51.970;4.614;2024-03-08T10:15:22;16.60;74.10
17495;DHT22;8864;51.970;4.614;2024-03-08T10:17:50;16.60;73.90
17495;DHT22;8864;51.970;4.614;2024-03-08T10:20:18;16.50;73.60
17495;DHT22;8864;51.970;4.614;2024-03-08T10:22:47;16.50;73.80
17495;DHT22;8864;51.970;4.614;2024-03-08T10:25:14;16.50;73.70
17495;DHT22;8864;51.970;4.614;2024-03-08T10:27:41;16.50;73.60
17495;DHT22;8864;51.970;4.614;2024-03-08T10:30:11;16.60;73.70
17495;DHT22;8864;51.970;4.614;2024-03-08T10:32:39;16.60;73.50
17495;DHT22;8864;51.970;4.614;2024-03-08T10:35:07;16.60;73.40
17495;DHT22;8864;51.970;4.614;2024-03-08T10:37:44;16.60;73.10
17495;DHT22;8864;51.970;4.614;2024-03-08T10:40:17;16.60;73.70
17495;DHT22;8864;51.970;4.614;2024-03-08T10:42:52;16.60;73.60
17495;DHT22;8864;51.970;4.614;2024-03-08T10:45:34;16.60;72.60
17495;DHT22;8864;51.970;4.614;2024-03-08T10:48:15;16.60;72.50
17495;DHT22;8864;51.970;4.614;2024-03-08T10:50:48;16.60;72.70
17495;DHT22;8864;51.970;4.614;2024-03-08T10:53:17;16.60;72.80
17495;DHT22;8864;51.970;4.614;2024-03-08T10:55:49;16.60;72.80
17495;DHT22;8864;51.970;4.614;2024-03-08T10:58:19;16.60;72.90
17495;DHT22;8864;51.970;4.614;2024-03-08T11:00:47;16.60;72.60
17495;DHT22;8864;51.970;4.614;2024-03-08T11:03:45;16.60;72.80
17495;DHT22;8864;51.970;4.614;2024-03-08T11:06:16;16.60;72.80
17495;DHT22;8864;51.970;4.614;2024-03-08T11:08:44;16.60;72.70
17495;DHT22;8864;51.970;4.614;2024-03-08T11:11:25;16.60;72.60
17495;DHT22;8864;51.970;4.614;2024-03-08T11:13:56;16.60;72.50
17495;DHT22;8864;51.970;4.614;2024-03-08T11:16:38;16.60;72.50
17495;DHT22;8864;51.970;4.614;2024-03-08T11:19:24;16.60;72.90
17495;DHT22;8864;51.970;4.614;2024-03-08T11:22:01;16.50;72.80
17495;DHT22;8864;51.970;4.614;2024-03-08T11:24:37;16.60;73.10
17495;DHT22;8864;51.970;4.614;2024-03-08T11:27:07;16.60;73.10
17495;DHT22;8864;51.970;4.614;2024-03-08T11:29:38;16.60;73.00
17495;DHT22;8864;51.970;4.614;2024-03-08T11:32:10;16.60;74.00
17495;DHT22;8864;51.970;4.614;2024-03-08T11:34:40;16.60;73.40
17495;DHT22;8864;51.970;4.614;2024-03-08T11:37:12;16.60;73.60
17495;DHT22;8864;51.970;4.614;2024-03-08T11:39:41;16.60;73.60
17495;DHT22;8864;51.970;4.614;2024-03-08T11:42:14;16.60;73.60
17495;DHT22;8864;51.970;4.614;2024-03-08T11:44:43;16.60;73.30
17495;DHT22;8864;51.970;4.614;2024-03-08T11:47:10;16.60;73.30
17495;DHT22;8864;51.970;4.614;2024-03-08T11:49:37;16.60;73.30
17495;DHT22;8864;51.970;4.614;2024-03-08T11:52:10;16.60;73.30
17495;DHT22;8864;51.970;4.614;2024-03-08T11:54:40;16.60;73.40
17495;DHT22;8864;51.970;4.614;2024-03-08T11:57:07;16.60;73.60
17495;DHT22;8864;51.970;4.614;2024-03-08T11:59:36;16.60;73.60
17495;DHT22;8864;51.970;4.614;2024-03-08T12:02:05;16.70;73.70
17495;DHT22;8864;51.970;4.614;2024-03-08T12:04:33;16.70;73.50
17495;DHT22;8864;51.970;4.614;2024-03-08T12:07:02;16.70;73.30
17495;DHT22;8864;51.970;4.614;2024-03-08T12:09:35;16.70;73.30
17495;DHT22;8864;51.970;4.614;2024-03-08T12:12:03;16.70;73.30
17495;DHT22;8864;51.970;4.614;2024-03-08T12:14:33;16.70;73.40
17495;DHT22;8864;51.970;4.614;2024-03-08T12:17:02;16.70;73.60
17495;DHT22;8864;51.970;4.614;2024-03-08T12:19:30;16.70;74.40
17495;DHT22;8864;51.970;4.614;2024-03-08T12:22:07;16.70;75.00
17495;DHT22;8864;51.970;4.614;2024-03-08T12:24:36;16.70;75.00
17495;DHT22;8864;51.970;4.614;2024-03-08T12:27:17;16.70;74.70
17495;DHT22;8864;51.970;4.614;2024-03-08T12:29:45;16.70;74.60
17495;DHT22;8864;51.970;4.614;2024-03-08T12:32:14;16.70;74.80
17495;DHT22;8864;51.970;4.614;2024-03-08T12:34:42;16.70;74.50
17495;DHT22;8864;51.970;4.614;2024-03-08T12:37:11;16.80;74.80
17495;DHT22;8864;51.970;4.614;2024-03-08T12:39:40;16.80;74.90
17495;DHT22;8864;51.970;4.614;2024-03-08T12:42:07;16.80;74.80
17495;DHT22;8864;51.970;4.614;2024-03-08T12:44:35;16.80;74.80
17495;DHT22;8864;51.970;4.614;2024-03-08T12:47:08;16.80;74.80
17495;DHT22;8864;51.970;4.614;2024-03-08T12:49:36;16.80;74.80
17495;DHT22;8864;51.970;4.614;2024-03-08T12:52:10;16.80;74.80
17495;DHT22;8864;51.970;4.614;2024-03-08T12:54:37;16.80;74.80
17495;DHT22;8864;51.970;4.614;2024-03-08T12:57:04;16.80;74.80
17495;DHT22;8864;51.970;4.614;2024-03-08T12:59:31;16.80;74.80
17495;DHT22;8864;51.970;4.614;2024-03-08T13:01:58;16.80;74.70
17495;DHT22;8864;51.970;4.614;2024-03-08T13:04:25;16.80;74.70
17495;DHT22;8864;51.970;4.614;2024-03-08T13:06:54;16.80;74.60
17495;DHT22;8864;51.970;4.614;2024-03-08T13:09:21;16.80;74.60
17495;DHT22;8864;51.970;4.614;2024-03-08T13:11:49;16.80;74.60
17495;DHT22;8864;51.970;4.614;2024-03-08T13:14:19;16.80;74.60
17495;DHT22;8864;51.970;4.614;2024-03-08T13:16:46;16.80;74.60
17495;DHT22;8864;51.970;4.614;2024-03-08T13:19:14;16.90;74.60
17495;DHT22;8864;51.970;4.614;2024-03-08T13:21:42;16.90;74.50
17495;DHT22;8864;51.970;4.614;2024-03-08T13:24:10;16.90;74.50
17495;DHT22;8864;51.970;4.614;2024-03-08T13:26:37;16.90;74.50
17495;DHT22;8864;51.970;4.614;2024-03-08T13:29:04;16.90;74.50
17495;DHT22;8864;51.970;4.614;2024-03-08T13:31:32;16.90;74.50
17495;DHT22;8864;51.970;4.614;2024-03-08T13:33:59;16.90;74.30
17495;DHT22;8864;51.970;4.614;2024-03-08T13:36:26;16.90;75.00
17495;DHT22;8864;51.970;4.614;2024-03-08T13:38:56;16.90;74.10
17495;DHT22;8864;51.970;4.614;2024-03-08T13:41:26;16.90;74.00
17495;DHT22;8864;51.970;4.614;2024-03-08T13:43:53;17.00;74.00
17495;DHT22;8864;51.970;4.614;2024-03-08T13:46:21;17.00;73.90
17495;DHT22;8864;51.970;4.614;2024-03-08T13:48:48;17.00;73.90
17495;DHT22;8864;51.970;4.614;2024-03-08T13:51:16;17.00;74.00
17495;DHT22;8864;51.970;4.614;2024-03-08T13:53:43;17.00;74.00
17495;DHT22;8864;51.970;4.614;2024-03-08T13:56:10;17.00;74.00
17495;DHT22;8864;51.970;4.614;2024-03-08T13:58:39;17.00;74.00
17495;DHT22;8864;51.970;4.614;2024-03-08T14:01:06;17.00;74.00
17495;DHT22;8864;51.970;4.614;2024-03-08T14:03:37;17.00;73.90
17495;DHT22;8864;51.970;4.614;2024-03-08T14:06:07;17.00;73.90
17495;DHT22;8864;51.970;4.614;2024-03-08T14:08:35;17.00;73.90
17495;DHT22;8864;51.970;4.614;2024-03-08T14:11:03;17.00;73.90
17495;DHT22;8864;51.970;4.614;2024-03-08T14:13:42;17.10;73.90
17495;DHT22;8864;51.970;4.614;2024-03-08T14:16:11;17.10;73.90
17495;DHT22;8864;51.970;4.614;2024-03-08T14:18:37;17.10;73.90
17495;DHT22;8864;51.970;4.614;2024-03-08T14:21:05;17.10;73.90
17495;DHT22;8864;51.970;4.614;2024-03-08T14:23:34;17.10;73.90
17495;DHT22;8864;51.970;4.614;2024-03-08T14:26:02;17.10;73.90
17495;DHT22;8864;51.970;4.614;2024-03-08T14:28:30;17.10;73.80
17495;DHT22;8864;51.970;4.614;2024-03-08T14:30:59;17.10;73.70
17495;DHT22;8864;51.970;4.614;2024-03-08T14:33:29;17.10;73.70
17495;DHT22;8864;51.970;4.614;2024-03-08T14:35:57;17.00;73.60
17495;DHT22;8864;51.970;4.614;2024-03-08T14:38:24;17.10;73.60
17495;DHT22;8864;51.970;4.614;2024-03-08T14:40:53;17.10;73.50
17495;DHT22;8864;51.970;4.614;2024-03-08T14:43:21;17.10;73.50
17495;DHT22;8864;51.970;4.614;2024-03-08T14:45:48;17.20;73.60
17495;DHT22;8864;51.970;4.614;2024-03-08T14:48:17;17.20;73.40
17495;DHT22;8864;51.970;4.614;2024-03-08T14:50:44;17.20;73.40
17495;DHT22;8864;51.970;4.614;2024-03-08T14:53:12;17.20;73.40
17495;DHT22;8864;51.970;4.614;2024-03-08T14:55:42;17.20;73.40
17495;DHT22;8864;51.970;4.614;2024-03-08T14:58:12;17.20;73.40
17495;DHT22;8864;51.970;4.614;2024-03-08T15:00:40;17.20;73.30
17495;DHT22;8864;51.970;4.614;2024-03-08T15:03:07;17.20;73.30
17495;DHT22;8864;51.970;4.614;2024-03-08T15:05:40;17.30;73.40
17495;DHT22;8864;51.970;4.614;2024-03-08T15:08:13;17.30;73.30
17495;DHT22;8864;51.970;4.614;2024-03-08T15:10:46;17.20;73.30
17495;DHT22;8864;51.970;4.614;2024-03-08T15:13:13;17.30;73.30
17495;DHT22;8864;51.970;4.614;2024-03-08T15:15:49;17.30;73.20
17495;DHT22;8864;51.970;4.614;2024-03-08T15:18:21;17.30;73.30
17495;DHT22;8864;51.970;4.614;2024-03-08T15:20:52;17.30;73.30
17495;DHT22;8864;51.970;4.614;2024-03-08T15:23:20;17.30;73.20
17495;DHT22;8864;51.970;4.614;2024-03-08T15:25:48;17.30;73.10
17495;DHT22;8864;51.970;4.614;2024-03-08T15:28:15;17.30;73.20
17495;DHT22;8864;51.970;4.614;2024-03-08T15:30:45;17.40;73.30
17495;DHT22;8864;51.970;4.614;2024-03-08T15:33:17;17.40;73.70
17495;DHT22;8864;51.970;4.614;2024-03-08T15:35:51;17.40;73.40
17495;DHT22;8864;51.970;4.614;2024-03-08T15:38:25;17.40;73.40
17495;DHT22;8864;51.970;4.614;2024-03-08T15:40:53;17.40;73.40
17495;DHT22;8864;51.970;4.614;2024-03-08T15:43:20;17.40;73.40
17495;DHT22;8864;51.970;4.614;2024-03-08T15:45:47;17.40;73.40
17495;DHT22;8864;51.970;4.614;2024-03-08T15:48:15;17.40;73.50
17495;DHT22;8864;51.970;4.614;2024-03-08T15:50:42;17.40;73.50
17495;DHT22;8864;51.970;4.614;2024-03-08T15:53:11;17.40;73.40
17495;DHT22;8864;51.970;4.614;2024-03-08T15:55:38;17.50;73.50
17495;DHT22;8864;51.970;4.614;2024-03-08T15:58:06;17.50;73.50
17495;DHT22;8864;51.970;4.614;2024-03-08T16:00:33;17.40;73.40
17495;DHT22;8864;51.970;4.614;2024-03-08T16:03:10;17.50;73.40
17495;DHT22;8864;51.970;4.614;2024-03-08T16:05:38;17.50;73.40
17495;DHT22;8864;51.970;4.614;2024-03-08T16:08:07;17.50;73.40
17495;DHT22;8864;51.970;4.614;2024-03-08T16:10:42;17.50;73.40
17495;DHT22;8864;51.970;4.614;2024-03-08T16:13:12;17.50;73.30
17495;DHT22;8864;51.970;4.614;2024-03-08T16:15:40;17.50;73.30
17495;DHT22;8864;51.970;4.614;2024-03-08T16:18:07;17.50;73.40
17495;DHT22;8864;51.970;4.614;2024-03-08T16:20:34;17.50;73.60
17495;DHT22;8864;51.970;4.614;2024-03-08T16:23:01;17.60;73.10
17495;DHT22;8864;51.970;4.614;2024-03-08T16:25:30;17.60;73.10
17495;DHT22;8864;51.970;4.614;2024-03-08T16:27:58;17.70;73.30
17495;DHT22;8864;51.970;4.614;2024-03-08T16:30:25;17.60;73.00
17495;DHT22;8864;51.970;4.614;2024-03-08T16:32:52;17.60;73.10
17495;DHT22;8864;51.970;4.614;2024-03-08T16:35:20;17.60;73.10
17495;DHT22;8864;51.970;4.614;2024-03-08T16:37:47;17.60;73.10
17495;DHT22;8864;51.970;4.614;2024-03-08T16:40:15;17.60;73.10
17495;DHT22;8864;51.970;4.614;2024-03-08T16:42:43;17.60;73.10
17495;DHT22;8864;51.970;4.614;2024-03-08T16:45:13;17.60;73.10
17495;DHT22;8864;51.970;4.614;2024-03-08T16:47:40;17.60;73.10
17495;DHT22;8864;51.970;4.614;2024-03-08T16:50:08;17.60;73.10
17495;DHT22;8864;51.970;4.614;2024-03-08T16:52:39;17.50;73.00
17495;DHT22;8864;51.970;4.614;2024-03-08T16:55:07;17.50;73.10
17495;DHT22;8864;51.970;4.614;2024-03-08T16:57:40;17.50;73.10
17495;DHT22;8864;51.970;4.614;2024-03-08T17:00:13;17.50;73.10
17495;DHT22;8864;51.970;4.614;2024-03-08T17:02:44;17.50;73.10
17495;DHT22;8864;51.970;4.614;2024-03-08T17:05:14;17.50;73.10
17495;DHT22;8864;51.970;4.614;2024-03-08T17:07:43;17.50;73.30
17495;DHT22;8864;51.970;4.614;2024-03-08T17:10:12;17.40;73.30
17495;DHT22;8864;51.970;4.614;2024-03-08T17:12:42;17.40;73.40
17495;DHT22;8864;51.970;4.614;2024-03-08T17:15:10;17.40;73.50
17495;DHT22;8864;51.970;4.614;2024-03-08T17:17:40;17.40;73.60
17495;DHT22;8864;51.970;4.614;2024-03-08T17:20:09;17.40;73.70
17495;DHT22;8864;51.970;4.614;2024-03-08T17:22:41;17.30;73.70
17495;DHT22;8864;51.970;4.614;2024-03-08T17:25:09;17.30;73.70
17495;DHT22;8864;51.970;4.614;2024-03-08T17:27:41;17.30;73.80
17495;DHT22;8864;51.970;4.614;2024-03-08T17:30:10;17.30;73.80
17495;DHT22;8864;51.970;4.614;2024-03-08T17:32:47;17.30;73.80
17495;DHT22;8864;51.970;4.614;2024-03-08T17:35:15;17.30;73.90
17495;DHT22;8864;51.970;4.614;2024-03-08T17:37:46;17.30;73.90
17495;DHT22;8864;51.970;4.614;2024-03-08T17:40:14;17.20;73.90
17495;DHT22;8864;51.970;4.614;2024-03-08T17:42:44;17.20;74.00
17495;DHT22;8864;51.970;4.614;2024-03-08T17:45:11;17.20;74.00
17495;DHT22;8864;51.970;4.614;2024-03-08T17:47:41;17.20;74.00
17495;DHT22;8864;51.970;4.614;2024-03-08T17:50:10;17.20;74.00
17495;DHT22;8864;51.970;4.614;2024-03-08T17:52:41;17.20;74.10
17495;DHT22;8864;51.970;4.614;2024-03-08T17:55:09;17.10;74.00
17495;DHT22;8864;51.970;4.614;2024-03-08T17:57:43;17.20;74.20
17495;DHT22;8864;51.970;4.614;2024-03-08T18:00:11;17.10;74.10
17495;DHT22;8864;51.970;4.614;2024-03-08T18:02:47;17.10;74.10
17495;DHT22;8864;51.970;4.614;2024-03-08T18:05:17;17.10;74.10
17495;DHT22;8864;51.970;4.614;2024-03-08T18:07:44;17.10;74.20
17495;DHT22;8864;51.970;4.614;2024-03-08T18:10:12;17.10;74.20
17495;DHT22;8864;51.970;4.614;2024-03-08T18:12:46;17.10;74.20
17495;DHT22;8864;51.970;4.614;2024-03-08T18:15:16;17.10;74.20
17495;DHT22;8864;51.970;4.614;2024-03-08T18:17:51;17.00;74.20
17495;DHT22;8864;51.970;4.614;2024-03-08T18:20:20;17.00;74.30
17495;DHT22;8864;51.970;4.614;2024-03-08T18:22:51;17.00;74.30
17495;DHT22;8864;51.970;4.614;2024-03-08T18:25:18;17.00;74.30
17495;DHT22;8864;51.970;4.614;2024-03-08T18:27:49;17.00;74.30
17495;DHT22;8864;51.970;4.614;2024-03-08T18:30:16;17.00;74.40
17495;DHT22;8864;51.970;4.614;2024-03-08T18:32:45;17.00;74.40
17495;DHT22;8864;51.970;4.614;2024-03-08T18:35:14;17.00;74.40
17495;DHT22;8864;51.970;4.614;2024-03-08T18:37:44;17.00;74.50
17495;DHT22;8864;51.970;4.614;2024-03-08T18:40:13;17.00;74.50
17495;DHT22;8864;51.970;4.614;2024-03-08T18:42:42;17.00;74.60
17495;DHT22;8864;51.970;4.614;2024-03-08T18:45:10;17.00;74.60
17495;DHT22;8864;51.970;4.614;2024-03-08T18:47:39;17.00;74.60
17495;DHT22;8864;51.970;4.614;2024-03-08T18:50:06;17.00;74.60
17495;DHT22;8864;51.970;4.614;2024-03-08T18:52:34;16.90;74.50
17495;DHT22;8864;51.970;4.614;2024-03-08T18:55:04;16.90;74.50
17495;DHT22;8864;51.970;4.614;2024-03-08T18:57:36;16.90;74.60
17495;DHT22;8864;51.970;4.614;2024-03-08T19:00:08;16.90;74.60
17495;DHT22;8864;51.970;4.614;2024-03-08T19:02:41;16.90;74.60
17495;DHT22;8864;51.970;4.614;2024-03-08T19:05:08;16.90;74.70
17495;DHT22;8864;51.970;4.614;2024-03-08T19:07:42;16.90;74.60
17495;DHT22;8864;51.970;4.614;2024-03-08T19:10:11;16.90;74.60
17495;DHT22;8864;51.970;4.614;2024-03-08T19:12:40;16.90;75.40
17495;DHT22;8864;51.970;4.614;2024-03-08T19:15:09;16.90;74.60
17495;DHT22;8864;51.970;4.614;2024-03-08T19:17:37;16.90;74.70
17495;DHT22;8864;51.970;4.614;2024-03-08T19:20:05;16.90;74.70
17495;DHT22;8864;51.970;4.614;2024-03-08T19:22:37;16.90;74.70
17495;DHT22;8864;51.970;4.614;2024-03-08T19:25:05;16.90;74.70
17495;DHT22;8864;51.970;4.614;2024-03-08T19:27:34;16.90;74.80
17495;DHT22;8864;51.970;4.614;2024-03-08T19:30:02;16.90;74.80
17495;DHT22;8864;51.970;4.614;2024-03-08T19:32:30;16.90;74.80
17495;DHT22;8864;51.970;4.614;2024-03-08T19:34:58;16.90;74.80
17495;DHT22;8864;51.970;4.614;2024-03-08T19:37:26;16.80;74.70
17495;DHT22;8864;51.970;4.614;2024-03-08T19:39:54;16.90;74.80
17495;DHT22;8864;51.970;4.614;2024-03-08T19:42:21;16.90;74.80
17495;DHT22;8864;51.970;4.614;2024-03-08T19:44:52;16.90;74.80
17495;DHT22;8864;51.970;4.614;2024-03-08T19:47:19;16.90;74.80
17495;DHT22;8864;51.970;4.614;2024-03-08T19:49:46;16.80;74.80
17495;DHT22;8864;51.970;4.614;2024-03-08T19:52:13;16.80;74.80
17495;DHT22;8864;51.970;4.614;2024-03-08T19:54:40;16.80;74.80
17495;DHT22;8864;51.970;4.614;2024-03-08T19:57:07;16.80;74.80
17495;DHT22;8864;51.970;4.614;2024-03-08T19:59:36;16.80;74.80
17495;DHT22;8864;51.970;4.614;2024-03-08T20:02:09;16.80;74.80
17495;DHT22;8864;51.970;4.614;2024-03-08T20:04:38;16.80;74.80
17495;DHT22;8864;51.970;4.614;2024-03-08T20:07:05;16.80;74.80
17495;DHT22;8864;51.970;4.614;2024-03-08T20:09:33;16.80;74.80
17495;DHT22;8864;51.970;4.614;2024-03-08T20:12:01;16.80;75.00
17495;DHT22;8864;51.970;4.614;2024-03-08T20:14:30;16.80;75.00
17495;DHT22;8864;51.970;4.614;2024-03-08T20:16:57;16.80;75.00
17495;DHT22;8864;51.970;4.614;2024-03-08T20:19:25;16.80;75.10
17495;DHT22;8864;51.970;4.614;2024-03-08T20:21:54;16.80;75.10
17495;DHT22;8864;51.970;4.614;2024-03-08T20:24:21;16.80;75.10
17495;DHT22;8864;51.970;4.614;2024-03-08T20:26:48;16.80;75.10
17495;DHT22;8864;51.970;4.614;2024-03-08T20:29:15;16.80;75.10
17495;DHT22;8864;51.970;4.614;2024-03-08T20:31:42;16.80;75.10
17495;DHT22;8864;51.970;4.614;2024-03-08T20:34:10;16.80;75.20
17495;DHT22;8864;51.970;4.614;2024-03-08T20:36:41;16.80;75.20
17495;DHT22;8864;51.970;4.614;2024-03-08T20:39:09;16.70;75.20
17495;DHT22;8864;51.970;4.614;2024-03-08T20:41:36;16.80;75.30
17495;DHT22;8864;51.970;4.614;2024-03-08T20:44:06;16.80;75.30
17495;DHT22;8864;51.970;4.614;2024-03-08T20:46:33;16.80;75.30
17495;DHT22;8864;51.970;4.614;2024-03-08T20:49:00;16.70;75.20
17495;DHT22;8864;51.970;4.614;2024-03-08T20:51:28;16.70;75.20
17495;DHT22;8864;51.970;4.614;2024-03-08T20:53:56;16.70;75.30
17495;DHT22;8864;51.970;4.614;2024-03-08T20:56:25;16.70;75.30
17495;DHT22;8864;51.970;4.614;2024-03-08T20:58:52;16.70;75.30
17495;DHT22;8864;51.970;4.614;2024-03-08T21:01:20;16.70;75.30
17495;DHT22;8864;51.970;4.614;2024-03-08T21:03:52;16.70;75.30
17495;DHT22;8864;51.970;4.614;2024-03-08T21:06:19;16.70;75.30
17495;DHT22;8864;51.970;4.614;2024-03-08T21:08:46;16.70;75.30
17495;DHT22;8864;51.970;4.614;2024-03-08T21:11:15;16.70;75.30
17495;DHT22;8864;51.970;4.614;2024-03-08T21:13:42;16.70;75.30
17495;DHT22;8864;51.970;4.614;2024-03-08T21:16:09;16.70;75.40
17495;DHT22;8864;51.970;4.614;2024-03-08T21:18:37;16.70;75.40
17495;DHT22;8864;51.970;4.614;2024-03-08T21:21:04;16.70;75.40
17495;DHT22;8864;51.970;4.614;2024-03-08T21:23:32;16.70;75.40
17495;DHT22;8864;51.970;4.614;2024-03-08T21:25:59;16.70;75.40
17495;DHT22;8864;51.970;4.614;2024-03-08T21:28:28;16.70;75.40
17495;DHT22;8864;51.970;4.614;2024-03-08T21:30:55;16.70;75.40
17495;DHT22;8864;51.970;4.614;2024-03-08T21:33:24;16.70;75.40
17495;DHT22;8864;51.970;4.614;2024-03-08T21:35:51;16.70;75.40
17495;DHT22;8864;51.970;4.614;2024-03-08T21:38:18;16.70;75.40
17495;DHT22;8864;51.970;4.614;2024-03-08T21:40:46;16.70;75.40
17495;DHT22;8864;51.970;4.614;2024-03-08T21:43:15;16.70;75.50
17495;DHT22;8864;51.970;4.614;2024-03-08T21:45:43;16.70;75.50
17495;DHT22;8864;51.970;4.614;2024-03-08T21:48:10;16.70;75.50
17495;DHT22;8864;51.970;4.614;2024-03-08T21:50:37;16.70;75.50
17495;DHT22;8864;51.970;4.614;2024-03-08T21:53:04;16.70;75.50
17495;DHT22;8864;51.970;4.614;2024-03-08T21:55:33;16.70;75.50
17495;DHT22;8864;51.970;4.614;2024-03-08T21:58:00;16.70;75.50
17495;DHT22;8864;51.970;4.614;2024-03-08T22:00:29;16.70;75.50
17495;DHT22;8864;51.970;4.614;2024-03-08T22:02:59;16.60;75.40
17495;DHT22;8864;51.970;4.614;2024-03-08T22:05:28;16.60;75.50